sensor_id;sensor_type;location;lat;lon;timestamp;P1;durP1;ratioP1;P2;durP2;ratioP2
3559;SDS011;1794;48.804;9.156;2022-08-24T00:00:06;7.80;;;5.77;;
3559;SDS011;1794;48.804;9.156;2022-08-24T00:02:36;6.10;;;5.20;;
3559;SDS011;1794;48.804;9.156;2022-08-24T00:05:05;6.00;;;5.40;;
3559;SDS011;1794;48.804;9.156;2022-08-24T00:07:33;5.87;;;5.27;;
3559;SDS011;1794;48.804;9.156;2022-08-24T00:10:00;5.57;;;4.97;;
3559;SDS011;1794;48.804;9.156;2022-08-24T00:12:30;5.63;;;5.10;;
3559;SDS011;1794;48.804;9.156;2022-08-24T00:14:57;6.13;;;5.60;;
3559;SDS011;1794;48.804;9.156;2022-08-24T00:17:24;6.60;;;5.93;;
3559;SDS011;1794;48.804;9.156;2022-08-24T00:19:50;7.27;;;6.17;;
3559;SDS011;1794;48.804;9.156;2022-08-24T00:22:19;7.10;;;6.50;;
3559;SDS011;1794;48.804;9.156;2022-08-24T00:24:46;7.30;;;6.60;;
3559;SDS011;1794;48.804;9.156;2022-08-24T00:27:13;6.80;;;6.20;;
3559;SDS011;1794;48.804;9.156;2022-08-24T00:29:39;8.30;;;5.37;;
3559;SDS011;1794;48.804;9.156;2022-08-24T00:32:06;8.57;;;6.60;;
3559;SDS011;1794;48.804;9.156;2022-08-24T00:34:33;8.07;;;5.90;;
3559;SDS011;1794;48.804;9.156;2022-08-24T00:37:00;6.53;;;5.90;;
3559;SDS011;1794;48.804;9.156;2022-08-24T00:39:28;7.63;;;5.90;;
3559;SDS011;1794;48.804;9.156;2022-08-24T00:41:55;7.37;;;6.70;;
3559;SDS011;1794;48.804;9.156;2022-08-24T00:44:22;7.40;;;6.60;;
3559;SDS011;1794;48.804;9.156;2022-08-24T00:46:50;5.87;;;5.37;;
3559;SDS011;1794;48.804;9.156;2022-08-24T00:49:22;5.70;;;5.17;;
3559;SDS011;1794;48.804;9.156;2022-08-24T00:51:54;6.50;;;5.90;;
3559;SDS011;1794;48.804;9.156;2022-08-24T00:54:26;8.33;;;6.53;;
3559;SDS011;1794;48.804;9.156;2022-08-24T00:56:57;7.90;;;6.37;;
3559;SDS011;1794;48.804;9.156;2022-08-24T00:59:28;5.80;;;5.30;;
3559;SDS011;1794;48.804;9.156;2022-08-24T01:01:57;6.70;;;6.00;;
3559;SDS011;1794;48.804;9.156;2022-08-24T01:04:29;6.20;;;5.60;;
3559;SDS011;1794;48.804;9.156;2022-08-24T01:07:02;6.50;;;5.80;;
3559;SDS011;1794;48.804;9.156;2022-08-24T01:09:30;7.10;;;6.40;;
3559;SDS011;1794;48.804;9.156;2022-08-24T01:11:57;7.53;;;6.90;;
3559;SDS011;1794;48.804;9.156;2022-08-24T01:14:23;6.63;;;6.03;;
3559;SDS011;1794;48.804;9.156;2022-08-24T01:16:51;7.03;;;6.43;;
3559;SDS011;1794;48.804;9.156;2022-08-24T01:19:36;7.13;;;6.43;;
3559;SDS011;1794;48.804;9.156;2022-08-24T01:22:10;7.10;;;6.40;;
3559;SDS011;1794;48.804;9.156;2022-08-24T01:24:48;7.43;;;6.40;;
3559;SDS011;1794;48.804;9.156;2022-08-24T01:27:15;7.00;;;6.40;;
3559;SDS011;1794;48.804;9.156;2022-08-24T01:29:42;6.90;;;6.20;;
3559;SDS011;1794;48.804;9.156;2022-08-24T01:32:11;6.80;;;6.20;;
3559;SDS011;1794;48.804;9.156;2022-08-24T01:34:39;7.20;;;6.50;;
3559;SDS011;1794;48.804;9.156;2022-08-24T01:37:06;7.60;;;6.43;;
3559;SDS011;1794;48.804;9.156;2022-08-24T01:39:36;6.73;;;6.13;;
3559;SDS011;1794;48.804;9.156;2022-08-24T01:42:07;6.90;;;6.30;;
3559;SDS011;1794;48.804;9.156;2022-08-24T01:44:35;7.00;;;6.30;;
3559;SDS011;1794;48.804;9.156;2022-08-24T01:47:04;8.10;;;6.37;;
3559;SDS011;1794;48.804;9.156;2022-08-24T01:49:33;7.07;;;6.37;;
3559;SDS011;1794;48.804;9.156;2022-08-24T01:52:01;6.93;;;6.23;;
3559;SDS011;1794;48.804;9.156;2022-08-24T01:54:30;7.37;;;6.67;;
3559;SDS011;1794;48.804;9.156;2022-08-24T01:56:58;7.10;;;6.50;;
3559;SDS011;1794;48.804;9.156;2022-08-24T01:59:27;6.90;;;6.20;;
3559;SDS011;1794;48.804;9.156;2022-08-24T02:01:55;6.97;;;6.17;;
3559;SDS011;1794;48.804;9.156;2022-08-24T02:04:26;7.87;;;6.97;;
3559;SDS011;1794;48.804;9.156;2022-08-24T02:06:52;7.20;;;6.03;;
3559;SDS011;1794;48.804;9.156;2022-08-24T02:09:19;6.73;;;6.10;;
3559;SDS011;1794;48.804;9.156;2022-08-24T02:11:46;6.23;;;5.50;;
3559;SDS011;1794;48.804;9.156;2022-08-24T02:14:14;6.90;;;6.20;;
3559;SDS011;1794;48.804;9.156;2022-08-24T02:16:44;8.23;;;6.70;;
3559;SDS011;1794;48.804;9.156;2022-08-24T02:19:11;6.80;;;6.20;;
3559;SDS011;1794;48.804;9.156;2022-08-24T02:21:38;7.50;;;6.80;;
3559;SDS011;1794;48.804;9.156;2022-08-24T02:24:06;8.80;;;7.07;;
3559;SDS011;1794;48.804;9.156;2022-08-24T02:26:33;6.80;;;6.20;;
3559;SDS011;1794;48.804;9.156;2022-08-24T02:29:00;7.67;;;6.90;;
3559;SDS011;1794;48.804;9.156;2022-08-24T02:31:27;15.67;;;6.90;;
3559;SDS011;1794;48.804;9.156;2022-08-24T02:33:55;7.63;;;6.93;;
3559;SDS011;1794;48.804;9.156;2022-08-24T02:36:21;7.83;;;6.50;;
3559;SDS011;1794;48.804;9.156;2022-08-24T02:38:48;8.77;;;7.13;;
3559;SDS011;1794;48.804;9.156;2022-08-24T02:41:15;7.30;;;6.40;;
3559;SDS011;1794;48.804;9.156;2022-08-24T02:43:42;7.07;;;6.37;;
3559;SDS011;1794;48.804;9.156;2022-08-24T02:46:15;8.00;;;7.03;;
3559;SDS011;1794;48.804;9.156;2022-08-24T02:48:42;6.80;;;6.20;;
3559;SDS011;1794;48.804;9.156;2022-08-24T02:51:18;6.73;;;6.13;;
3559;SDS011;1794;48.804;9.156;2022-08-24T02:53:45;7.33;;;6.40;;
3559;SDS011;1794;48.804;9.156;2022-08-24T02:56:11;7.70;;;7.00;;
3559;SDS011;1794;48.804;9.156;2022-08-24T02:58:38;7.60;;;6.87;;
3559;SDS011;1794;48.804;9.156;2022-08-24T03:01:07;7.53;;;6.73;;
3559;SDS011;1794;48.804;9.156;2022-08-24T03:03:34;7.03;;;6.20;;
3559;SDS011;1794;48.804;9.156;2022-08-24T03:06:01;7.37;;;6.43;;
3559;SDS011;1794;48.804;9.156;2022-08-24T03:08:29;10.00;;;6.10;;
3559;SDS011;1794;48.804;9.156;2022-08-24T03:10:55;8.20;;;7.33;;
3559;SDS011;1794;48.804;9.156;2022-08-24T03:13:24;7.73;;;6.67;;
3559;SDS011;1794;48.804;9.156;2022-08-24T03:15:51;7.40;;;6.70;;
3559;SDS011;1794;48.804;9.156;2022-08-24T03:18:19;7.63;;;6.83;;
3559;SDS011;1794;48.804;9.156;2022-08-24T03:20:46;9.20;;;7.80;;
3559;SDS011;1794;48.804;9.156;2022-08-24T03:23:13;7.90;;;7.20;;
3559;SDS011;1794;48.804;9.156;2022-08-24T03:25:41;8.10;;;6.53;;
3559;SDS011;1794;48.804;9.156;2022-08-24T03:28:09;7.07;;;6.47;;
3559;SDS011;1794;48.804;9.156;2022-08-24T03:30:36;7.93;;;6.53;;
3559;SDS011;1794;48.804;9.156;2022-08-24T03:33:04;7.93;;;6.80;;
3559;SDS011;1794;48.804;9.156;2022-08-24T03:35:32;9.60;;;6.70;;
3559;SDS011;1794;48.804;9.156;2022-08-24T03:37:58;9.57;;;6.60;;
3559;SDS011;1794;48.804;9.156;2022-08-24T03:40:25;10.90;;;7.53;;
3559;SDS011;1794;48.804;9.156;2022-08-24T03:42:54;7.67;;;6.97;;
3559;SDS011;1794;48.804;9.156;2022-08-24T03:45:21;7.30;;;6.60;;
3559;SDS011;1794;48.804;9.156;2022-08-24T03:47:48;7.77;;;7.07;;
3559;SDS011;1794;48.804;9.156;2022-08-24T03:50:15;7.23;;;6.53;;
3559;SDS011;1794;48.804;9.156;2022-08-24T03:52:42;7.37;;;6.47;;
3559;SDS011;1794;48.804;9.156;2022-08-24T03:55:09;10.53;;;6.90;;
3559;SDS011;1794;48.804;9.156;2022-08-24T03:57:36;8.23;;;7.43;;
3559;SDS011;1794;48.804;9.156;2022-08-24T04:00:06;7.13;;;6.50;;
3559;SDS011;1794;48.804;9.156;2022-08-24T04:02:36;7.37;;;6.73;;
3559;SDS011;1794;48.804;9.156;2022-08-24T04:05:03;8.23;;;7.50;;
3559;SDS011;1794;48.804;9.156;2022-08-24T04:07:31;7.70;;;6.70;;
3559;SDS011;1794;48.804;9.156;2022-08-24T04:09:59;8.33;;;7.53;;
3559;SDS011;1794;48.804;9.156;2022-08-24T04:12:26;8.07;;;7.27;;
3559;SDS011;1794;48.804;9.156;2022-08-24T04:14:53;8.73;;;7.67;;
3559;SDS011;1794;48.804;9.156;2022-08-24T04:17:22;9.73;;;7.90;;
3559;SDS011;1794;48.804;9.156;2022-08-24T04:19:48;7.77;;;7.00;;
3559;SDS011;1794;48.804;9.156;2022-08-24T04:22:25;9.67;;;8.47;;
3559;SDS011;1794;48.804;9.156;2022-08-24T04:24:53;8.47;;;7.77;;
3559;SDS011;1794;48.804;9.156;2022-08-24T04:27:21;8.17;;;7.30;;
3559;SDS011;1794;48.804;9.156;2022-08-24T04:29:47;9.50;;;8.70;;
3559;SDS011;1794;48.804;9.156;2022-08-24T04:32:15;8.80;;;7.90;;
3559;SDS011;1794;48.804;9.156;2022-08-24T04:34:43;9.67;;;8.73;;
3559;SDS011;1794;48.804;9.156;2022-08-24T04:37:11;8.93;;;8.03;;
3559;SDS011;1794;48.804;9.156;2022-08-24T04:39:39;10.37;;;8.53;;
3559;SDS011;1794;48.804;9.156;2022-08-24T04:42:07;8.20;;;7.40;;
3559;SDS011;1794;48.804;9.156;2022-08-24T04:44:33;9.77;;;8.77;;
3559;SDS011;1794;48.804;9.156;2022-08-24T04:47:00;7.97;;;7.17;;
3559;SDS011;1794;48.804;9.156;2022-08-24T04:49:27;9.90;;;8.03;;
3559;SDS011;1794;48.804;9.156;2022-08-24T04:51:55;10.03;;;8.07;;
3559;SDS011;1794;48.804;9.156;2022-08-24T04:54:22;9.80;;;8.17;;
3559;SDS011;1794;48.804;9.156;2022-08-24T04:56:50;8.80;;;7.90;;
3559;SDS011;1794;48.804;9.156;2022-08-24T04:59:16;9.50;;;7.43;;
3559;SDS011;1794;48.804;9.156;2022-08-24T05:01:43;8.87;;;7.83;;
3559;SDS011;1794;48.804;9.156;2022-08-24T05:04:10;7.63;;;6.93;;
3559;SDS011;1794;48.804;9.156;2022-08-24T05:06:39;9.50;;;8.50;;
3559;SDS011;1794;48.804;9.156;2022-08-24T05:09:08;8.30;;;7.60;;
3559;SDS011;1794;48.804;9.156;2022-08-24T05:11:35;10.20;;;8.80;;
3559;SDS011;1794;48.804;9.156;2022-08-24T05:14:04;10.53;;;7.40;;
3559;SDS011;1794;48.804;9.156;2022-08-24T05:16:31;8.50;;;7.30;;
3559;SDS011;1794;48.804;9.156;2022-08-24T05:19:01;12.73;;;8.63;;
3559;SDS011;1794;48.804;9.156;2022-08-24T05:21:29;9.07;;;8.17;;
3559;SDS011;1794;48.804;9.156;2022-08-24T05:23:56;9.33;;;8.43;;
3559;SDS011;1794;48.804;9.156;2022-08-24T05:26:25;8.93;;;8.03;;
3559;SDS011;1794;48.804;9.156;2022-08-24T05:28:55;7.90;;;7.17;;
3559;SDS011;1794;48.804;9.156;2022-08-24T05:31:24;7.70;;;7.00;;
3559;SDS011;1794;48.804;9.156;2022-08-24T05:33:53;7.70;;;7.07;;
3559;SDS011;1794;48.804;9.156;2022-08-24T05:36:21;8.83;;;8.03;;
3559;SDS011;1794;48.804;9.156;2022-08-24T05:38:50;8.93;;;7.20;;
3559;SDS011;1794;48.804;9.156;2022-08-24T05:41:19;11.40;;;7.17;;
3559;SDS011;1794;48.804;9.156;2022-08-24T05:43:48;7.90;;;7.30;;
3559;SDS011;1794;48.804;9.156;2022-08-24T05:46:16;10.80;;;8.03;;
3559;SDS011;1794;48.804;9.156;2022-08-24T05:48:43;8.47;;;7.77;;
3559;SDS011;1794;48.804;9.156;2022-08-24T05:51:10;8.37;;;7.57;;
3559;SDS011;1794;48.804;9.156;2022-08-24T05:53:37;7.60;;;6.97;;
3559;SDS011;1794;48.804;9.156;2022-08-24T05:56:04;7.80;;;7.10;;
3559;SDS011;1794;48.804;9.156;2022-08-24T05:58:33;9.93;;;6.80;;
3559;SDS011;1794;48.804;9.156;2022-08-24T06:01:05;11.07;;;7.13;;
3559;SDS011;1794;48.804;9.156;2022-08-24T06:03:34;8.70;;;6.47;;
3559;SDS011;1794;48.804;9.156;2022-08-24T06:06:01;7.40;;;6.80;;
3559;SDS011;1794;48.804;9.156;2022-08-24T06:08:30;6.40;;;5.80;;
3559;SDS011;1794;48.804;9.156;2022-08-24T06:10:57;7.17;;;6.47;;
3559;SDS011;1794;48.804;9.156;2022-08-24T06:13:25;10.50;;;6.70;;
3559;SDS011;1794;48.804;9.156;2022-08-24T06:16:00;9.23;;;6.30;;
3559;SDS011;1794;48.804;9.156;2022-08-24T06:18:30;8.13;;;6.63;;
3559;SDS011;1794;48.804;9.156;2022-08-24T06:20:56;6.53;;;5.93;;
3559;SDS011;1794;48.804;9.156;2022-08-24T06:23:23;7.50;;;6.70;;
3559;SDS011;1794;48.804;9.156;2022-08-24T06:25:50;9.60;;;6.80;;
3559;SDS011;1794;48.804;9.156;2022-08-24T06:28:34;6.40;;;5.50;;
3559;SDS011;1794;48.804;9.156;2022-08-24T06:31:01;6.87;;;6.17;;
3559;SDS011;1794;48.804;9.156;2022-08-24T06:33:30;9.10;;;6.60;;
3559;SDS011;1794;48.804;9.156;2022-08-24T06:35:57;8.53;;;6.37;;
3559;SDS011;1794;48.804;9.156;2022-08-24T06:38:25;7.20;;;5.57;;
3559;SDS011;1794;48.804;9.156;2022-08-24T06:40:51;16.43;;;6.60;;
3559;SDS011;1794;48.804;9.156;2022-08-24T06:43:18;6.60;;;5.83;;
3559;SDS011;1794;48.804;9.156;2022-08-24T06:45:45;7.93;;;5.23;;
3559;SDS011;1794;48.804;9.156;2022-08-24T06:48:12;10.17;;;6.03;;
3559;SDS011;1794;48.804;9.156;2022-08-24T06:50:40;6.37;;;5.77;;
3559;SDS011;1794;48.804;9.156;2022-08-24T06:53:07;6.33;;;5.50;;
3559;SDS011;1794;48.804;9.156;2022-08-24T06:55:42;9.40;;;6.20;;
3559;SDS011;1794;48.804;9.156;2022-08-24T06:58:10;6.20;;;5.70;;
3559;SDS011;1794;48.804;9.156;2022-08-24T07:00:36;6.83;;;5.50;;
3559;SDS011;1794;48.804;9.156;2022-08-24T07:03:03;9.53;;;6.07;;
3559;SDS011;1794;48.804;9.156;2022-08-24T07:05:30;9.00;;;6.50;;
3559;SDS011;1794;48.804;9.156;2022-08-24T07:07:58;9.73;;;5.87;;
3559;SDS011;1794;48.804;9.156;2022-08-24T07:10:25;6.70;;;6.00;;
3559;SDS011;1794;48.804;9.156;2022-08-24T07:12:52;8.80;;;6.50;;
3559;SDS011;1794;48.804;9.156;2022-08-24T07:15:19;6.50;;;5.90;;
3559;SDS011;1794;48.804;9.156;2022-08-24T07:17:45;10.10;;;6.30;;
3559;SDS011;1794;48.804;9.156;2022-08-24T07:20:12;8.60;;;7.10;;
3559;SDS011;1794;48.804;9.156;2022-08-24T07:22:39;7.07;;;5.47;;
3559;SDS011;1794;48.804;9.156;2022-08-24T07:25:08;7.27;;;5.70;;
3559;SDS011;1794;48.804;9.156;2022-08-24T07:27:36;6.47;;;5.77;;
3559;SDS011;1794;48.804;9.156;2022-08-24T07:30:04;7.37;;;5.27;;
3559;SDS011;1794;48.804;9.156;2022-08-24T07:32:32;9.87;;;5.70;;
3559;SDS011;1794;48.804;9.156;2022-08-24T07:34:59;7.00;;;6.30;;
3559;SDS011;1794;48.804;9.156;2022-08-24T07:37:26;6.07;;;5.23;;
3559;SDS011;1794;48.804;9.156;2022-08-24T07:39:52;6.60;;;6.10;;
3559;SDS011;1794;48.804;9.156;2022-08-24T07:42:20;5.80;;;5.30;;
3559;SDS011;1794;48.804;9.156;2022-08-24T07:44:48;7.00;;;5.53;;
3559;SDS011;1794;48.804;9.156;2022-08-24T07:47:15;8.80;;;6.83;;
3559;SDS011;1794;48.804;9.156;2022-08-24T07:49:43;7.87;;;7.10;;
3559;SDS011;1794;48.804;9.156;2022-08-24T07:52:09;11.63;;;7.10;;
3559;SDS011;1794;48.804;9.156;2022-08-24T07:54:36;7.00;;;6.30;;
3559;SDS011;1794;48.804;9.156;2022-08-24T07:57:03;7.17;;;6.47;;
3559;SDS011;1794;48.804;9.156;2022-08-24T07:59:32;7.60;;;6.30;;
3559;SDS011;1794;48.804;9.156;2022-08-24T08:01:59;7.00;;;5.33;;
3559;SDS011;1794;48.804;9.156;2022-08-24T08:04:27;6.90;;;5.40;;
3559;SDS011;1794;48.804;9.156;2022-08-24T08:06:55;5.80;;;5.30;;
3559;SDS011;1794;48.804;9.156;2022-08-24T08:09:24;7.27;;;4.83;;
3559;SDS011;1794;48.804;9.156;2022-08-24T08:11:51;6.57;;;4.50;;
3559;SDS011;1794;48.804;9.156;2022-08-24T08:14:18;5.87;;;4.13;;
3559;SDS011;1794;48.804;9.156;2022-08-24T08:16:46;5.03;;;4.10;;
3559;SDS011;1794;48.804;9.156;2022-08-24T08:19:13;4.50;;;3.60;;
3559;SDS011;1794;48.804;9.156;2022-08-24T08:21:41;5.43;;;3.83;;
3559;SDS011;1794;48.804;9.156;2022-08-24T08:24:26;4.73;;;4.20;;
3559;SDS011;1794;48.804;9.156;2022-08-24T08:26:53;4.50;;;4.10;;
3559;SDS011;1794;48.804;9.156;2022-08-24T08:29:21;4.13;;;3.43;;
3559;SDS011;1794;48.804;9.156;2022-08-24T08:31:50;6.20;;;3.97;;
3559;SDS011;1794;48.804;9.156;2022-08-24T08:34:17;4.40;;;3.70;;
3559;SDS011;1794;48.804;9.156;2022-08-24T08:36:45;3.80;;;3.50;;
3559;SDS011;1794;48.804;9.156;2022-08-24T08:39:12;4.97;;;3.80;;
3559;SDS011;1794;48.804;9.156;2022-08-24T08:42:02;4.50;;;4.10;;
3559;SDS011;1794;48.804;9.156;2022-08-24T08:44:53;7.00;;;4.50;;
3559;SDS011;1794;48.804;9.156;2022-08-24T08:50:30;4.03;;;3.60;;
3559;SDS011;1794;48.804;9.156;2022-08-24T08:53:16;4.13;;;3.73;;
3559;SDS011;1794;48.804;9.156;2022-08-24T08:56:07;4.77;;;4.10;;
3559;SDS011;1794;48.804;9.156;2022-08-24T08:58:45;3.60;;;3.30;;
3559;SDS011;1794;48.804;9.156;2022-08-24T09:01:21;3.50;;;2.70;;
3559;SDS011;1794;48.804;9.156;2022-08-24T09:06:55;3.13;;;2.83;;
3559;SDS011;1794;48.804;9.156;2022-08-24T09:09:39;3.47;;;2.87;;
3559;SDS011;1794;48.804;9.156;2022-08-24T09:12:18;4.10;;;2.80;;
3559;SDS011;1794;48.804;9.156;2022-08-24T09:17:56;5.13;;;3.07;;
3559;SDS011;1794;48.804;9.156;2022-08-24T09:20:41;4.00;;;2.90;;
3559;SDS011;1794;48.804;9.156;2022-08-24T09:23:28;2.90;;;2.60;;
3559;SDS011;1794;48.804;9.156;2022-08-24T09:26:02;3.17;;;2.70;;
3559;SDS011;1794;48.804;9.156;2022-08-24T09:28:37;5.10;;;2.43;;
3559;SDS011;1794;48.804;9.156;2022-08-24T09:34:16;2.67;;;2.47;;
3559;SDS011;1794;48.804;9.156;2022-08-24T09:36:53;5.10;;;2.30;;
3559;SDS011;1794;48.804;9.156;2022-08-24T09:39:31;4.43;;;2.60;;
3559;SDS011;1794;48.804;9.156;2022-08-24T09:42:16;4.30;;;2.60;;
3559;SDS011;1794;48.804;9.156;2022-08-24T09:45:09;3.33;;;2.73;;
3559;SDS011;1794;48.804;9.156;2022-08-24T09:57:35;3.40;;;2.28;;
3559;SDS011;1794;48.804;9.156;2022-08-24T10:00:11;3.95;;;2.60;;
3559;SDS011;1794;48.804;9.156;2022-08-24T10:02:56;5.00;;;2.13;;
3559;SDS011;1794;48.804;9.156;2022-08-24T10:05:28;2.83;;;2.53;;
3559;SDS011;1794;48.804;9.156;2022-08-24T10:08:02;3.90;;;2.60;;
3559;SDS011;1794;48.804;9.156;2022-08-24T10:10:43;5.68;;;2.65;;
3559;SDS011;1794;48.804;9.156;2022-08-24T10:13:19;4.28;;;2.40;;
3559;SDS011;1794;48.804;9.156;2022-08-24T10:15:56;3.40;;;2.60;;
3559;SDS011;1794;48.804;9.156;2022-08-24T10:18:36;3.70;;;2.43;;
3559;SDS011;1794;48.804;9.156;2022-08-24T10:21:17;3.80;;;2.37;;
3559;SDS011;1794;48.804;9.156;2022-08-24T10:23:56;3.23;;;2.83;;
3559;SDS011;1794;48.804;9.156;2022-08-24T10:26:53;2.70;;;1.90;;
3559;SDS011;1794;48.804;9.156;2022-08-24T10:29:38;2.90;;;2.40;;
3559;SDS011;1794;48.804;9.156;2022-08-24T10:32:21;4.17;;;2.10;;
3559;SDS011;1794;48.804;9.156;2022-08-24T10:35:04;3.92;;;1.85;;
3559;SDS011;1794;48.804;9.156;2022-08-24T10:41:05;2.30;;;2.05;;
3559;SDS011;1794;48.804;9.156;2022-08-24T10:43:56;4.63;;;2.28;;
3559;SDS011;1794;48.804;9.156;2022-08-24T10:46:49;2.42;;;2.00;;
3559;SDS011;1794;48.804;9.156;2022-08-24T10:52:24;2.55;;;2.10;;
3559;SDS011;1794;48.804;9.156;2022-08-24T10:55:18;2.70;;;2.20;;
3559;SDS011;1794;48.804;9.156;2022-08-24T10:57:49;2.85;;;1.73;;
3559;SDS011;1794;48.804;9.156;2022-08-24T11:00:25;2.20;;;1.70;;
3559;SDS011;1794;48.804;9.156;2022-08-24T11:03:08;3.25;;;1.92;;
3559;SDS011;1794;48.804;9.156;2022-08-24T11:05:38;2.03;;;1.75;;
3559;SDS011;1794;48.804;9.156;2022-08-24T11:08:07;3.42;;;1.85;;
3559;SDS011;1794;48.804;9.156;2022-08-24T11:10:43;1.95;;;1.75;;
3559;SDS011;1794;48.804;9.156;2022-08-24T11:13:14;2.70;;;1.90;;
3559;SDS011;1794;48.804;9.156;2022-08-24T11:15:47;4.00;;;2.00;;
3559;SDS011;1794;48.804;9.156;2022-08-24T11:18:17;3.47;;;2.03;;
3559;SDS011;1794;48.804;9.156;2022-08-24T11:20:45;2.28;;;2.03;;
3559;SDS011;1794;48.804;9.156;2022-08-24T11:23:14;2.20;;;1.73;;
3559;SDS011;1794;48.804;9.156;2022-08-24T11:25:51;4.88;;;2.22;;
3559;SDS011;1794;48.804;9.156;2022-08-24T11:28:24;5.43;;;2.80;;
3559;SDS011;1794;48.804;9.156;2022-08-24T11:30:57;2.97;;;2.28;;
3559;SDS011;1794;48.804;9.156;2022-08-24T11:33:30;2.42;;;1.77;;
3559;SDS011;1794;48.804;9.156;2022-08-24T11:35:59;2.22;;;2.03;;
3559;SDS011;1794;48.804;9.156;2022-08-24T11:38:28;3.08;;;2.53;;
3559;SDS011;1794;48.804;9.156;2022-08-24T11:41:01;2.10;;;1.88;;
3559;SDS011;1794;48.804;9.156;2022-08-24T11:43:46;2.65;;;1.90;;
3559;SDS011;1794;48.804;9.156;2022-08-24T11:46:25;2.70;;;2.50;;
3559;SDS011;1794;48.804;9.156;2022-08-24T11:49:02;2.47;;;2.28;;
3559;SDS011;1794;48.804;9.156;2022-08-24T11:51:36;1.87;;;1.67;;
3559;SDS011;1794;48.804;9.156;2022-08-24T11:54:12;3.40;;;2.00;;
3559;SDS011;1794;48.804;9.156;2022-08-24T11:56:49;2.93;;;2.10;;
3559;SDS011;1794;48.804;9.156;2022-08-24T11:59:25;3.30;;;2.57;;
3559;SDS011;1794;48.804;9.156;2022-08-24T12:02:03;2.90;;;2.23;;
3559;SDS011;1794;48.804;9.156;2022-08-24T12:04:37;3.13;;;2.20;;
3559;SDS011;1794;48.804;9.156;2022-08-24T12:07:14;2.78;;;2.10;;
3559;SDS011;1794;48.804;9.156;2022-08-24T12:09:51;2.10;;;1.83;;
3559;SDS011;1794;48.804;9.156;2022-08-24T12:12:26;3.10;;;1.90;;
3559;SDS011;1794;48.804;9.156;2022-08-24T12:15:01;2.53;;;2.15;;
3559;SDS011;1794;48.804;9.156;2022-08-24T12:17:36;2.38;;;2.17;;
3559;SDS011;1794;48.804;9.156;2022-08-24T12:20:12;2.60;;;2.40;;
3559;SDS011;1794;48.804;9.156;2022-08-24T12:22:46;3.08;;;2.10;;
3559;SDS011;1794;48.804;9.156;2022-08-24T12:25:14;2.92;;;1.95;;
3559;SDS011;1794;48.804;9.156;2022-08-24T12:28:00;2.28;;;1.75;;
3559;SDS011;1794;48.804;9.156;2022-08-24T12:30:28;1.92;;;1.73;;
3559;SDS011;1794;48.804;9.156;2022-08-24T12:32:56;2.38;;;1.92;;
3559;SDS011;1794;48.804;9.156;2022-08-24T12:35:29;2.00;;;1.80;;
3559;SDS011;1794;48.804;9.156;2022-08-24T12:38:01;2.50;;;2.30;;
3559;SDS011;1794;48.804;9.156;2022-08-24T12:40:33;3.70;;;2.20;;
3559;SDS011;1794;48.804;9.156;2022-08-24T12:43:05;2.33;;;2.10;;
3559;SDS011;1794;48.804;9.156;2022-08-24T12:45:35;3.20;;;2.10;;
3559;SDS011;1794;48.804;9.156;2022-08-24T12:48:05;2.80;;;2.20;;
3559;SDS011;1794;48.804;9.156;2022-08-24T12:50:39;2.63;;;2.07;;
3559;SDS011;1794;48.804;9.156;2022-08-24T12:53:24;2.50;;;1.90;;
3559;SDS011;1794;48.804;9.156;2022-08-24T12:59:06;2.57;;;2.37;;
3559;SDS011;1794;48.804;9.156;2022-08-24T13:01:44;3.00;;;2.10;;
3559;SDS011;1794;48.804;9.156;2022-08-24T13:04:15;2.00;;;1.80;;
3559;SDS011;1794;48.804;9.156;2022-08-24T13:06:59;5.63;;;1.90;;
3559;SDS011;1794;48.804;9.156;2022-08-24T13:09:30;2.40;;;2.00;;
3559;SDS011;1794;48.804;9.156;2022-08-24T13:21:15;2.70;;;2.07;;
3559;SDS011;1794;48.804;9.156;2022-08-24T13:30:27;3.47;;;2.10;;
3559;SDS011;1794;48.804;9.156;2022-08-24T13:33:03;3.30;;;1.83;;
3559;SDS011;1794;48.804;9.156;2022-08-24T13:35:53;2.20;;;2.00;;
3559;SDS011;1794;48.804;9.156;2022-08-24T13:38:27;2.27;;;2.03;;
3559;SDS011;1794;48.804;9.156;2022-08-24T13:41:16;3.10;;;2.10;;
3559;SDS011;1794;48.804;9.156;2022-08-24T13:43:58;3.37;;;2.47;;
3559;SDS011;1794;48.804;9.156;2022-08-24T13:46:37;2.80;;;2.50;;
3559;SDS011;1794;48.804;9.156;2022-08-24T13:49:17;2.30;;;2.10;;
3559;SDS011;1794;48.804;9.156;2022-08-24T13:51:55;2.80;;;2.10;;
3559;SDS011;1794;48.804;9.156;2022-08-24T13:54:32;2.67;;;2.47;;
3559;SDS011;1794;48.804;9.156;2022-08-24T13:57:18;2.47;;;2.17;;
3559;SDS011;1794;48.804;9.156;2022-08-24T13:59:57;2.50;;;2.30;;
3559;SDS011;1794;48.804;9.156;2022-08-24T14:02:38;2.50;;;2.13;;
3559;SDS011;1794;48.804;9.156;2022-08-24T14:05:27;3.00;;;2.23;;
3559;SDS011;1794;48.804;9.156;2022-08-24T14:08:03;2.90;;;2.37;;
3559;SDS011;1794;48.804;9.156;2022-08-24T14:10:48;4.93;;;3.03;;
3559;SDS011;1794;48.804;9.156;2022-08-24T14:13:28;2.57;;;2.37;;
3559;SDS011;1794;48.804;9.156;2022-08-24T14:16:04;10.80;;;2.97;;
3559;SDS011;1794;48.804;9.156;2022-08-24T14:18:57;3.10;;;2.37;;
3559;SDS011;1794;48.804;9.156;2022-08-24T14:21:39;2.83;;;2.50;;
3559;SDS011;1794;48.804;9.156;2022-08-24T14:24:12;3.37;;;2.30;;
3559;SDS011;1794;48.804;9.156;2022-08-24T14:26:59;2.50;;;2.30;;
3559;SDS011;1794;48.804;9.156;2022-08-24T14:29:30;3.47;;;2.43;;
3559;SDS011;1794;48.804;9.156;2022-08-24T14:37:52;2.33;;;2.00;;
3559;SDS011;1794;48.804;9.156;2022-08-24T14:40:34;4.40;;;2.47;;
3559;SDS011;1794;48.804;9.156;2022-08-24T14:43:14;3.97;;;2.37;;
3559;SDS011;1794;48.804;9.156;2022-08-24T14:45:51;3.33;;;2.60;;
3559;SDS011;1794;48.804;9.156;2022-08-24T14:48:26;3.57;;;2.50;;
3559;SDS011;1794;48.804;9.156;2022-08-24T14:51:05;3.20;;;2.40;;
3559;SDS011;1794;48.804;9.156;2022-08-24T14:53:44;5.17;;;3.10;;
3559;SDS011;1794;48.804;9.156;2022-08-24T14:56:19;3.97;;;3.07;;
3559;SDS011;1794;48.804;9.156;2022-08-24T14:58:55;3.20;;;2.90;;
3559;SDS011;1794;48.804;9.156;2022-08-24T15:01:38;2.83;;;2.63;;
3559;SDS011;1794;48.804;9.156;2022-08-24T15:04:29;3.33;;;2.57;;
3559;SDS011;1794;48.804;9.156;2022-08-24T15:07:27;3.00;;;2.70;;
3559;SDS011;1794;48.804;9.156;2022-08-24T15:09:56;3.33;;;2.90;;
3559;SDS011;1794;48.804;9.156;2022-08-24T15:12:29;3.33;;;2.90;;
3559;SDS011;1794;48.804;9.156;2022-08-24T15:15:03;5.90;;;2.87;;
3559;SDS011;1794;48.804;9.156;2022-08-24T15:20:26;2.90;;;2.57;;
3559;SDS011;1794;48.804;9.156;2022-08-24T15:23:10;2.53;;;2.33;;
3559;SDS011;1794;48.804;9.156;2022-08-24T15:25:43;3.17;;;2.87;;
3559;SDS011;1794;48.804;9.156;2022-08-24T15:28:14;2.80;;;2.60;;
3559;SDS011;1794;48.804;9.156;2022-08-24T15:30:52;3.23;;;2.63;;
3559;SDS011;1794;48.804;9.156;2022-08-24T15:33:20;3.00;;;2.70;;
3559;SDS011;1794;48.804;9.156;2022-08-24T15:35:50;3.20;;;2.90;;
3559;SDS011;1794;48.804;9.156;2022-08-24T15:38:30;2.90;;;2.60;;
3559;SDS011;1794;48.804;9.156;2022-08-24T15:41:02;2.60;;;2.40;;
3559;SDS011;1794;48.804;9.156;2022-08-24T15:43:31;3.37;;;2.90;;
3559;SDS011;1794;48.804;9.156;2022-08-24T15:45:58;2.90;;;2.60;;
3559;SDS011;1794;48.804;9.156;2022-08-24T15:48:25;2.23;;;2.00;;
3559;SDS011;1794;48.804;9.156;2022-08-24T15:50:55;3.07;;;2.40;;
3559;SDS011;1794;48.804;9.156;2022-08-24T15:53:24;3.03;;;2.60;;
3559;SDS011;1794;48.804;9.156;2022-08-24T15:55:56;3.10;;;2.63;;
3559;SDS011;1794;48.804;9.156;2022-08-24T15:58:28;2.87;;;2.63;;
3559;SDS011;1794;48.804;9.156;2022-08-24T16:00:57;4.50;;;2.73;;
3559;SDS011;1794;48.804;9.156;2022-08-24T16:03:48;2.90;;;2.60;;
3559;SDS011;1794;48.804;9.156;2022-08-24T16:06:19;2.87;;;2.23;;
3559;SDS011;1794;48.804;9.156;2022-08-24T16:08:53;3.77;;;2.80;;
3559;SDS011;1794;48.804;9.156;2022-08-24T16:11:26;3.70;;;2.20;;
3559;SDS011;1794;48.804;9.156;2022-08-24T16:13:55;3.20;;;2.70;;
3559;SDS011;1794;48.804;9.156;2022-08-24T16:16:29;2.90;;;2.10;;
3559;SDS011;1794;48.804;9.156;2022-08-24T16:18:59;3.03;;;2.10;;
3559;SDS011;1794;48.804;9.156;2022-08-24T16:21:29;2.93;;;1.93;;
3559;SDS011;1794;48.804;9.156;2022-08-24T16:24:01;2.60;;;2.20;;
3559;SDS011;1794;48.804;9.156;2022-08-24T16:26:49;4.27;;;2.20;;
3559;SDS011;1794;48.804;9.156;2022-08-24T16:32:11;3.40;;;2.30;;
3559;SDS011;1794;48.804;9.156;2022-08-24T16:34:40;4.33;;;2.43;;
3559;SDS011;1794;48.804;9.156;2022-08-24T16:37:10;2.63;;;2.20;;
3559;SDS011;1794;48.804;9.156;2022-08-24T16:39:37;2.40;;;2.20;;
3559;SDS011;1794;48.804;9.156;2022-08-24T16:42:05;2.13;;;1.93;;